Buffalo, WY (82834)

6:54 AM MDT on April 27, 2017 (GMT -0600)
Buffalo | | Change Station
Active Advisory: Winter Storm Warning Active Notice: Public Information Statement

Elev 4708 ft 44.34 °N, 106.70 °W | Updated 4 seconds ago

Overcast
Overcast
32.5 °F
Feels Like 32 °F
N
0.0
Wind Variable Wind from WNW
Gusts 0.0 mph

Today
High -- | Low -- °F
--% Chance of Precip.
Yesterday
High -- | Low -- °F
Precip. -- in
Pressure 29.57 in
Visibility 10.0 miles
Clouds Overcast 8000 ft
Windchill 32 °F
Dew Point 32 °F
Humidity 99%
Rainfall 0.00 in
Snow Depth Not available.
6:03 AM 8:06 PM
New Moon, 2% visible
METAR KBYG 271153Z AUTO 00000KT 10SM OVC080 01/M03 A2955 RMK AO2 SLP011 7//// T00061028 10028 21006 55002 $
Pressure 29.57 in
Visibility 10.0 miles
Clouds Overcast 8000 ft
Windchill 32 °F
Dew Point 32 °F
Humidity 99%
Rainfall 0.00 in
Snow Depth Not available.
6:03 AM 8:06 PM
New Moon, 2% visible
METAR KBYG 271153Z AUTO 00000KT 10SM OVC080 01/M03 A2955 RMK AO2 SLP011 7//// T00061028 10028 21006 55002 $

Get Your Daily Forecast Email!

Thanks for signing up!

Be on the lookout for a verification email in your inbox.

You'll start receiving severe weather alerts in your inbox..

×

10-Day Weather Forecast

Almanac

Astronomy

Apr. 27, 2017 Rise Set
Actual Time
Civil Twilight
Nautical Twilight
Astronomical Twilight
Moon
Length of Visible Light
Length of Day
Tomorrow will be .
, % of the Moon is Illuminated

Today's Extremes

State Highs State Lows

Community

WunderPhotos

WunderBlog® & News

Nearby

Air Quality

  Air Quality AQ Index Pollutant
Not available.

Snow Depth

Station Depth Elevation

Earthquake Activity

City Distance Mag. Time & Date
Minimum magnitude displayed is 2.5.

Coastal Water Temperatures

Place Temperature

Stations

Nearby Weather Stations

Station Location Temp. Windchill Dew Point Humidity Wind Precip. Elev Updated Type
                   

Watches & Warnings

Winter Storm Warning
Issued: 5:14 AM MDT Apr. 27, 2017 – National Weather Service

... Winter Storm Warning remains in effect from 6 PM this evening
to midnight MDT Friday night...

* timing... a mix of rain and snow will change to all snow this
evening and continue through Friday.

* Snow accumulation... 5 to 9 inches, with the highest amounts in
the foothills of the bighorns.

* Main impact... roads are expected to become slushy to snow
covered tonight. Travel could become difficult at times
especially late tonight and Friday morning.

* Other impacts... heavy snow will reduce visibility below a
quarter mile at times.

Precautionary/preparedness actions...

A Winter Storm Warning means significant amounts of snow, and or
blowing snow are expected or occurring. This could make travel
very hazardous or impossible. If you must travel keep some food,
water, and an extra flashlight in your vehicle in case of an
emergency. Check the latest Road conditions at wyoroad.Info or by
dialing 5 1 1.